エカテリンブルク の空港の天気 - METARとTAF

コルツォヴォ空港 ( USSS / SVX ) - ロシア エカテリンブルク
飛行場実況気象(Metar)
観測時間08/17 16:30 YEKT (08/17 11:30 UTC)
風向・風速南南西 3m/s
視程10km以上
天気現象
全天の4割程度の雲 雲底高度 1220m
気温27℃
湿度58%
気圧1017hPa
METARUSSS 171130Z 21003MPS 150V240 9999 SCT040 27/18 Q1017 R26R/010060 NOSIG RMK QFE742/0990
過去の天気等 Google飛行場航空写真 Wunderground天気予報

過去48時間のMETAR

飛行場予報(TAF)
発表時間: 8/17 15:59 YEKT (8/17 10:59 UTC)
予報対象時間: 17日17時 YEKT ~ 18日17時 YEKT
風向・風速西 3m/s 瞬間風速 10m/s
視程10km以上
全天の8割程度の雲 雲底高度 610m
17日23時 YEKT から
風向・風速東 3m/s 瞬間風速 8m/s
視程3100m
天気現象弱いしゅう雨 もや
全天の8割程度の雲 雲底高度 340m
全天の8割程度の積乱雲 雲底高度 610m
17日23時 YEKT ~ 18日9時 YEKT に一時的に
視程300m
天気現象弱い雷雨 霧
全天を覆う雲 鉛直視程 60m
18日9時 YEKT ~ 18日17時 YEKT に一時的に
天気現象弱い雷雨
TAF USSS 171059Z 1712/1812 27003G10MPS 9999 BKN020
FM171800 10003G08MPS 3100 -SHRA BR BKN011 BKN020CB
TEMPO 1718/1804 0300 -TSRA FG VV002
TEMPO 1804/1812 -TSRA